createdAt,value
2023-10-28T00:05:00.718Z,6.78
2023-10-28T00:10:08.432Z,6.68
2023-10-28T00:15:10.225Z,4.82
2023-10-28T00:20:14.319Z,3.90
2023-10-28T00:25:17.291Z,5.82
2023-10-28T00:30:19.395Z,7.05
2023-10-28T00:35:24.184Z,8.38
2023-10-28T00:40:32.752Z,5.82
2023-10-28T00:45:36.337Z,7.20
2023-10-28T00:50:38.215Z,9.20
2023-10-28T00:55:40.995Z,6.68
2023-10-28T01:00:42.759Z,9.73
2023-10-28T01:05:46.122Z,7.38
2023-10-28T01:10:48.345Z,8.40
2023-10-28T01:15:51.247Z,7.93
2023-10-28T01:20:53.113Z,13.07
2023-10-28T01:25:54.901Z,9.27
2023-10-28T01:30:57.434Z,7.65
2023-10-28T01:35:59.155Z,6.93
2023-10-28T01:41:02.727Z,8.25
2023-10-28T01:46:07.009Z,12.23
2023-10-28T01:51:10.041Z,6.78
2023-10-28T01:56:11.828Z,10.15
2023-10-28T02:01:13.713Z,7.15
2023-10-28T02:06:15.576Z,7.18
2023-10-28T02:11:17.303Z,13.15
2023-10-28T02:16:20.008Z,7.05
2023-10-28T02:21:21.640Z,10.98
2023-10-28T02:26:23.356Z,8.50
2023-10-28T02:31:25.041Z,7.95
2023-10-28T02:36:26.840Z,10.73
2023-10-28T02:41:28.558Z,7.25
2023-10-28T02:46:30.325Z,7.63
2023-10-28T02:51:32.056Z,11.63
2023-10-28T02:56:35.953Z,12.75
2023-10-28T03:01:43.227Z,13.50
2023-10-28T03:06:44.974Z,11.40
2023-10-28T03:11:46.978Z,10.27
2023-10-28T03:16:48.768Z,10.10
2023-10-28T03:21:50.517Z,10.73
2023-10-28T03:26:52.140Z,14.45
2023-10-28T03:31:53.920Z,13.82
2023-10-28T03:36:56.732Z,13.07
2023-10-28T03:41:58.357Z,11.20
2023-10-28T03:47:00.114Z,9.35
2023-10-28T03:52:01.863Z,8.88
2023-10-28T03:57:03.928Z,11.60
2023-10-28T04:02:06.517Z,9.35
2023-10-28T04:07:08.294Z,9.85
2023-10-28T04:12:10.112Z,7.35
2023-10-28T04:17:12.580Z,7.75
2023-10-28T04:22:14.249Z,10.18
2023-10-28T04:27:16.018Z,9.38
2023-10-28T04:32:21.544Z,6.90
2023-10-28T04:37:23.419Z,9.35
2023-10-28T04:42:25.133Z,8.80
2023-10-28T04:47:26.854Z,5.28
2023-10-28T04:52:28.565Z,7.70
2023-10-28T04:57:30.338Z,7.10
2023-10-28T05:02:32.477Z,7.20
2023-10-28T05:07:35.281Z,8.30
2023-10-28T05:12:40.179Z,4.57
2023-10-28T05:17:42.275Z,7.40
2023-10-28T05:22:44.652Z,5.28
2023-10-28T05:27:46.340Z,6.30
2023-10-28T05:32:48.081Z,8.20
2023-10-28T05:37:49.900Z,7.53
2023-10-28T05:42:51.702Z,10.15
2023-10-28T05:47:54.326Z,9.13
2023-10-28T05:52:56.183Z,9.65
2023-10-28T05:57:57.904Z,8.35
2023-10-28T06:02:59.657Z,7.82
2023-10-28T06:08:01.374Z,7.85
2023-10-28T06:13:03.692Z,8.38
2023-10-28T06:18:05.711Z,10.07
2023-10-28T06:23:07.706Z,8.80
2023-10-28T06:28:12.109Z,9.60
2023-10-28T06:33:14.546Z,7.53
2023-10-28T06:38:16.451Z,6.68
2023-10-28T06:43:19.688Z,5.47
2023-10-28T06:48:23.709Z,6.10
2023-10-28T06:53:25.349Z,7.22
2023-10-28T06:58:27.033Z,6.65
2023-10-28T07:03:30.280Z,6.88
2023-10-28T07:08:32.072Z,4.88
2023-10-28T07:13:33.926Z,5.90
2023-10-28T07:18:35.662Z,7.93
2023-10-28T07:23:37.308Z,5.63
2023-10-28T07:28:39.060Z,6.13
2023-10-28T07:33:40.872Z,5.63
2023-10-28T07:38:42.604Z,7.32
2023-10-28T07:43:44.548Z,6.40
2023-10-28T07:48:46.355Z,5.18
2023-10-28T07:53:51.696Z,9.52
2023-10-28T07:58:54.962Z,6.07
2023-10-28T08:03:57.727Z,7.55
2023-10-28T08:08:59.578Z,6.80
2023-10-28T08:14:01.876Z,8.20
2023-10-28T08:19:05.499Z,13.50
2023-10-28T08:24:10.015Z,8.05
2023-10-28T08:29:13.079Z,8.15
2023-10-28T08:34:14.839Z,7.07
2023-10-28T08:39:16.502Z,9.20
2023-10-28T08:44:28.623Z,4.75
2023-10-28T08:49:36.078Z,9.02
2023-10-28T08:54:39.415Z,7.65
2023-10-28T08:59:41.606Z,4.97
2023-10-28T09:04:43.366Z,8.48
2023-10-28T09:09:46.349Z,9.05
2023-10-28T09:14:49.065Z,7.00
2023-10-28T09:19:54.116Z,6.82
2023-10-28T09:24:56.477Z,8.30
2023-10-28T09:30:09.213Z,7.18
2023-10-28T09:35:12.498Z,7.22
2023-10-28T09:40:14.603Z,9.13
2023-10-28T09:45:17.653Z,7.63
2023-10-28T09:50:23.522Z,8.82
2023-10-28T09:55:33.817Z,7.90
2023-10-28T10:00:39.085Z,7.10
2023-10-28T10:05:44.482Z,5.72
2023-10-28T10:10:47.084Z,6.72
2023-10-28T10:15:55.078Z,6.70
2023-10-28T10:21:08.895Z,12.43
2023-10-28T10:26:26.134Z,5.45
2023-10-28T10:31:32.600Z,6.57
2023-10-28T10:36:42.028Z,7.22
2023-10-28T10:41:50.210Z,4.55
2023-10-28T10:47:01.226Z,6.95
2023-10-28T10:52:04.147Z,5.72
2023-10-28T10:57:07.481Z,7.57
2023-10-28T11:02:12.265Z,7.70
2023-10-28T11:07:14.299Z,5.05
2023-10-28T11:12:16.019Z,5.70
2023-10-28T11:17:17.864Z,6.00
2023-10-28T11:22:20.324Z,7.85
2023-10-28T11:27:23.366Z,7.40
2023-10-28T11:32:27.611Z,7.97
2023-10-28T11:37:31.007Z,8.45
2023-10-28T11:42:34.179Z,4.22
2023-10-28T11:47:36.100Z,6.38
2023-10-28T11:52:38.281Z,4.30
2023-10-28T11:57:40.021Z,6.32
2023-10-28T12:02:41.895Z,9.95
2023-10-28T12:07:45.395Z,10.98
2023-10-28T12:12:50.242Z,4.43
2023-10-28T12:17:54.566Z,6.78
2023-10-28T12:22:58.605Z,5.75
2023-10-28T12:28:00.362Z,4.60
2023-10-28T12:33:02.244Z,7.13
2023-10-28T12:38:05.372Z,8.43
2023-10-28T12:43:07.115Z,8.60
2023-10-28T12:48:08.928Z,7.30
2023-10-28T12:53:12.080Z,6.38
2023-10-28T12:58:15.712Z,7.72
2023-10-28T13:03:19.009Z,10.15
2023-10-28T13:08:35.564Z,10.60
2023-10-28T13:13:37.204Z,10.68
2023-10-28T13:18:38.951Z,10.18
2023-10-28T13:23:43.222Z,7.55
2023-10-28T13:28:47.170Z,7.70
2023-10-28T13:33:49.019Z,11.93
2023-10-28T13:38:50.808Z,15.55
2023-10-28T13:43:52.573Z,11.82
2023-10-28T13:48:55.667Z,9.93
2023-10-28T13:53:57.517Z,9.10
2023-10-28T13:59:01.943Z,11.70
2023-10-28T14:04:05.603Z,13.48
2023-10-28T14:09:07.478Z,12.73
2023-10-28T14:14:13.012Z,10.18
2023-10-28T14:19:15.725Z,8.95
2023-10-28T14:24:20.816Z,13.95
2023-10-28T14:29:22.680Z,11.48
2023-10-28T14:34:24.649Z,12.40
2023-10-28T14:39:28.889Z,13.50
2023-10-28T14:44:32.615Z,16.20
2023-10-28T14:49:35.396Z,9.43
2023-10-28T14:54:37.731Z,8.75
2023-10-28T14:59:48.300Z,16.77
2023-10-28T15:04:51.777Z,13.55
2023-10-28T15:09:54.758Z,6.82
2023-10-28T15:14:57.061Z,11.60
2023-10-28T15:20:00.138Z,17.98
2023-10-28T15:25:01.882Z,9.25
2023-10-28T15:30:05.515Z,11.50
2023-10-28T15:35:09.457Z,15.15
2023-10-28T15:40:18.931Z,13.40
2023-10-28T15:45:23.290Z,10.73
2023-10-28T15:50:25.569Z,11.35
2023-10-28T15:55:28.484Z,12.85
2023-10-28T16:00:30.175Z,16.98
2023-10-28T16:05:31.900Z,12.20
2023-10-28T16:10:35.243Z,12.73
2023-10-28T16:15:39.047Z,15.95
2023-10-28T16:20:43.360Z,14.25
2023-10-28T16:25:46.216Z,15.27
2023-10-28T16:30:49.862Z,13.25
2023-10-28T16:35:52.622Z,17.70
2023-10-28T16:40:58.276Z,13.93
2023-10-28T16:46:07.295Z,16.13
2023-10-28T16:51:14.752Z,17.63
2023-10-28T16:56:17.623Z,21.08
2023-10-28T17:01:19.708Z,21.00
2023-10-28T17:06:21.387Z,17.00
2023-10-28T17:11:27.390Z,16.48
2023-10-28T17:16:30.626Z,17.98
2023-10-28T17:21:32.984Z,13.23
2023-10-28T17:26:40.000Z,18.25
2023-10-28T17:31:41.836Z,12.38
2023-10-28T17:36:43.632Z,12.38
2023-10-28T17:41:50.467Z,11.95
2023-10-28T17:46:52.325Z,15.48
2023-10-28T17:51:53.996Z,13.23
2023-10-28T17:56:59.243Z,14.23
2023-10-28T18:02:01.924Z,15.25
2023-10-28T18:07:05.929Z,18.65
2023-10-28T18:12:08.009Z,11.02
2023-10-28T18:17:09.694Z,11.13
2023-10-28T18:22:13.636Z,9.82
2023-10-28T18:27:15.358Z,13.00
2023-10-28T18:32:17.056Z,13.82
2023-10-28T18:37:19.198Z,13.90
2023-10-28T18:42:21.495Z,14.15
2023-10-28T18:47:24.434Z,11.45
2023-10-28T18:52:27.790Z,8.45
2023-10-28T18:57:30.159Z,9.07
2023-10-28T19:02:32.414Z,10.27
2023-10-28T19:07:36.204Z,8.27
2023-10-28T19:12:38.110Z,10.90
2023-10-28T19:17:39.970Z,10.32
2023-10-28T19:22:44.489Z,9.20
2023-10-28T19:27:48.834Z,9.00
2023-10-28T19:32:50.614Z,9.88
2023-10-28T19:37:52.530Z,5.10
2023-10-28T19:42:54.234Z,6.13
2023-10-28T19:47:56.280Z,9.18
2023-10-28T19:52:58.124Z,7.50
2023-10-28T19:57:59.799Z,8.55
2023-10-28T20:03:04.579Z,5.55
2023-10-28T20:08:07.122Z,5.53
2023-10-28T20:13:08.945Z,7.40
2023-10-28T20:18:13.681Z,8.10
2023-10-28T20:23:15.507Z,6.10
2023-10-28T20:28:17.434Z,9.23
2023-10-28T20:33:20.805Z,6.20
2023-10-28T20:38:24.008Z,9.70
2023-10-28T20:43:25.908Z,7.55
2023-10-28T20:48:27.672Z,5.88
2023-10-28T20:53:29.707Z,4.43
2023-10-28T20:58:32.089Z,7.07
2023-10-28T21:03:38.010Z,4.93
2023-10-28T21:08:39.962Z,7.32
2023-10-28T21:13:41.913Z,4.15
2023-10-28T21:18:44.743Z,2.40
2023-10-28T21:23:46.454Z,6.10
2023-10-28T21:28:49.424Z,2.63
2023-10-28T21:33:51.125Z,2.53
2023-10-28T21:38:52.975Z,4.22
2023-10-28T21:43:54.709Z,3.20
2023-10-28T21:48:56.601Z,4.82
2023-10-28T21:53:58.366Z,5.20
2023-10-28T21:59:00.055Z,3.40
2023-10-28T22:04:01.929Z,6.28
2023-10-28T22:09:07.853Z,3.50
2023-10-28T22:14:09.714Z,3.60
2023-10-28T22:19:11.350Z,2.72
2023-10-28T22:24:13.745Z,2.08
2023-10-28T22:29:15.561Z,6.13
2023-10-28T22:34:17.696Z,3.97
2023-10-28T22:39:19.689Z,2.78
2023-10-28T22:44:21.521Z,2.78
2023-10-28T22:49:23.342Z,2.03
2023-10-28T22:54:25.591Z,1.80
2023-10-28T22:59:27.367Z,1.60
2023-10-28T23:04:29.219Z,5.15
2023-10-28T23:09:31.458Z,11.18
2023-10-28T23:14:33.264Z,1.73
2023-10-28T23:19:35.846Z,2.25
2023-10-28T23:24:37.576Z,2.33
2023-10-28T23:29:39.417Z,6.35
2023-10-28T23:34:41.679Z,2.53
2023-10-28T23:39:43.309Z,4.00
2023-10-28T23:44:45.349Z,3.20
2023-10-28T23:49:47.245Z,2.15
2023-10-28T23:54:49.165Z,3.00
2023-10-28T23:59:50.979Z,1.50
